Time;durP1;ratioP1;P1;durP2;ratioP2;P2;SDS_P1;SDS_P2;PMS_P1;PMS_P2;Temp;Humidity;BMP_temperature;BMP_pressure;BME280_temperature;BME280_humidity;BME280_pressure;Samples;Min_cycle;Max_cycle;Signal;HPM_P1;HPM_P2
2023/03/23 00:01:04;;;;;;;6.28;4.40;;;12.60;99.90;;;;;;5029375;28;20077;-72
2023/03/23 00:03:31;;;;;;;7.95;3.78;;;12.60;99.90;;;;;;5029416;28;20378;-72
2023/03/23 00:06:04;;;;;;;6.88;4.22;;;12.60;99.90;;;;;;5028673;28;20021;-72
2023/03/23 00:08:37;;;;;;;6.32;4.50;;;12.60;99.90;;;;;;5031145;28;20050;-72
2023/03/23 00:11:05;;;;;;;5.97;3.92;;;12.60;99.90;;;;;;5021418;28;20028;-72
2023/03/23 00:13:32;;;;;;;6.72;4.70;;;12.60;99.90;;;;;;5032850;28;20068;-72
2023/03/23 00:15:58;;;;;;;5.45;3.97;;;12.60;99.90;;;;;;5033529;28;20018;-72
2023/03/23 00:18:24;;;;;;;8.60;4.50;;;12.60;99.90;;;;;;5033955;28;20087;-72
2023/03/23 00:20:51;;;;;;;7.70;4.38;;;12.60;99.90;;;;;;5033923;28;20021;-72
2023/03/23 00:23:22;;;;;;;6.22;4.40;;;12.60;99.90;;;;;;5034768;28;20057;-72
2023/03/23 00:25:52;;;;;;;7.55;3.90;;;12.70;99.90;;;;;;5033300;28;20022;-72
2023/03/23 00:28:24;;;;;;;6.35;3.60;;;12.70;99.90;;;;;;5034824;28;20458;-72
2023/03/23 00:30:56;;;;;;;7.05;4.30;;;12.60;99.90;;;;;;5043175;28;20025;-72
2023/03/23 00:33:23;;;;;;;9.05;4.63;;;12.70;99.90;;;;;;5035246;28;20025;-72
2023/03/23 00:35:52;;;;;;;6.15;4.45;;;12.60;99.90;;;;;;5043979;28;20377;-72
2023/03/23 00:38:21;;;;;;;4.60;3.13;;;12.60;99.90;;;;;;5034989;28;20026;-72
2023/03/23 00:40:47;;;;;;;4.55;3.38;;;12.60;99.90;;;;;;5045299;28;20099;-72
2023/03/23 00:43:18;;;;;;;5.22;3.35;;;12.70;99.90;;;;;;5052236;28;20103;-72
2023/03/23 00:45:49;;;;;;;7.07;4.25;;;12.70;99.90;;;;;;5052879;28;20127;-72
2023/03/23 00:48:14;;;;;;;6.22;3.50;;;12.70;99.90;;;;;;5033260;28;20130;-72
2023/03/23 00:50:40;;;;;;;6.22;3.95;;;12.70;99.90;;;;;;5032656;28;20604;-72
2023/03/23 00:53:06;;;;;;;10.35;3.78;;;12.70;99.90;;;;;;5016322;28;20040;-72
2023/03/23 00:55:33;;;;;;;6.25;3.80;;;12.70;99.90;;;;;;5022957;28;20026;-72
2023/03/23 00:57:59;;;;;;;7.07;4.13;;;12.70;99.90;;;;;;5026075;28;20570;-72
2023/03/23 01:00:26;;;;;;;7.15;3.72;;;12.70;99.90;;;;;;5045164;28;20124;-72
2023/03/23 01:02:53;;;;;;;4.75;3.15;;;12.70;99.90;;;;;;5036956;28;20366;-72
2023/03/23 01:05:19;;;;;;;6.35;3.63;;;12.70;99.90;;;;;;5046313;28;20029;-72
2023/03/23 01:07:45;;;;;;;8.50;3.83;;;12.70;99.90;;;;;;5047327;28;20013;-72
2023/03/23 01:10:17;;;;;;;6.57;4.10;;;12.70;99.90;;;;;;5041609;28;20109;-72
2023/03/23 01:12:46;;;;;;;4.85;3.40;;;12.70;99.90;;;;;;5046352;28;20532;-72
2023/03/23 01:15:16;;;;;;;6.10;4.25;;;12.70;99.90;;;;;;5041016;28;20312;-72
2023/03/23 01:17:43;;;;;;;4.47;3.08;;;12.60;99.90;;;;;;5046326;28;20036;-73
2023/03/23 01:20:10;;;;;;;5.32;3.75;;;12.60;99.90;;;;;;5041571;28;20451;-72
2023/03/23 01:22:36;;;;;;;6.43;3.60;;;12.60;99.90;;;;;;5045128;28;20021;-72
2023/03/23 01:25:02;;;;;;;7.53;3.92;;;12.60;99.90;;;;;;5036761;28;20025;-72
2023/03/23 01:27:28;;;;;;;5.82;3.85;;;12.60;99.90;;;;;;5045442;28;20021;-72
2023/03/23 01:29:53;;;;;;;6.18;4.05;;;12.60;99.90;;;;;;5037916;28;20076;-72
2023/03/23 01:32:19;;;;;;;6.20;3.30;;;12.60;99.90;;;;;;5051670;28;20078;-72
2023/03/23 01:34:44;;;;;;;5.32;3.30;;;12.60;99.90;;;;;;5050755;28;20029;-72
2023/03/23 01:37:10;;;;;;;7.28;4.15;;;12.60;99.90;;;;;;5049753;28;20451;-72
2023/03/23 01:39:37;;;;;;;5.85;3.88;;;12.60;99.90;;;;;;5045138;28;20028;-72
2023/03/23 01:42:03;;;;;;;7.60;4.50;;;12.60;99.90;;;;;;5030088;28;20034;-71
2023/03/23 01:44:31;;;;;;;7.63;3.35;;;12.60;99.90;;;;;;5036669;28;20108;-72
2023/03/23 01:46:57;;;;;;;6.25;3.85;;;12.70;99.90;;;;;;5034424;28;20052;-72
2023/03/23 01:49:52;;;;;;;6.10;3.75;;;12.60;99.90;;;;;;5036750;28;20049;-72
2023/03/23 01:52:26;;;;;;;5.65;3.25;;;12.70;99.90;;;;;;5024876;28;20379;-72
2023/03/23 01:54:55;;;;;;;5.45;3.67;;;12.60;99.90;;;;;;5035050;28;20021;-72
2023/03/23 01:57:23;;;;;;;5.03;3.20;;;12.60;99.90;;;;;;5036296;28;20513;-71
2023/03/23 01:59:52;;;;;;;7.15;4.00;;;12.60;99.90;;;;;;5034352;28;20025;-72
2023/03/23 02:02:20;;;;;;;6.28;3.05;;;12.60;99.90;;;;;;5036839;28;20052;-72
2023/03/23 02:04:46;;;;;;;5.07;4.05;;;12.60;99.90;;;;;;5024535;28;20049;-72
2023/03/23 02:07:15;;;;;;;6.82;3.72;;;12.70;99.90;;;;;;5036493;28;20520;-72
2023/03/23 02:09:40;;;;;;;6.60;3.70;;;12.60;99.90;;;;;;5033119;28;20021;-72
2023/03/23 02:12:06;;;;;;;7.70;4.57;;;12.60;99.90;;;;;;5035874;28;20048;-72
2023/03/23 02:14:32;;;;;;;6.45;4.50;;;12.70;99.90;;;;;;5033481;28;20060;-72
2023/03/23 02:17:16;;;;;;;5.47;4.60;;;12.70;99.90;;;;;;5035624;28;20025;-72
2023/03/23 02:20:17;;;;;;;6.18;3.95;;;12.70;99.90;;;;;;5032195;28;20513;-72
2023/03/23 02:22:59;;;;;;;5.90;4.05;;;12.70;99.90;;;;;;4988631;28;20482;-72
2023/03/23 02:25:31;;;;;;;6.28;4.20;;;12.70;99.90;;;;;;5034060;28;20025;-72
2023/03/23 02:28:31;;;;;;;6.75;4.38;;;12.70;99.90;;;;;;5033249;28;20048;-72
2023/03/23 02:31:38;;;;;;;12.85;4.63;;;12.80;99.90;;;;;;5033967;28;20543;-72
2023/03/23 02:34:18;;;;;;;7.30;4.15;;;12.80;99.90;;;;;;5021311;28;20413;-72
2023/03/23 02:36:52;;;;;;;7.00;4.80;;;12.80;99.90;;;;;;5025229;28;20022;-71
2023/03/23 02:39:24;;;;;;;7.03;4.95;;;12.80;99.90;;;;;;5023616;28;20022;-72
2023/03/23 02:41:56;;;;;;;5.75;4.65;;;12.80;99.90;;;;;;5030458;28;20045;-72
2023/03/23 02:44:24;;;;;;;7.95;4.45;;;12.90;99.90;;;;;;5033827;28;20472;-72
2023/03/23 02:46:52;;;;;;;6.68;5.55;;;12.90;99.90;;;;;;5033836;28;20025;-72
2023/03/23 02:49:19;;;;;;;6.78;5.03;;;12.90;99.90;;;;;;5035355;28;20487;-72
2023/03/23 02:51:47;;;;;;;7.78;5.05;;;12.90;99.90;;;;;;5033475;28;20029;-72
2023/03/23 02:54:16;;;;;;;6.35;4.68;;;12.90;99.90;;;;;;5036237;28;20033;-72
2023/03/23 02:56:42;;;;;;;4.78;4.25;;;12.90;99.90;;;;;;5023313;28;20029;-72
2023/03/23 02:59:08;;;;;;;8.27;4.63;;;12.90;99.90;;;;;;5036242;28;20183;-72
2023/03/23 03:01:35;;;;;;;5.05;4.20;;;12.90;99.90;;;;;;5033248;28;20045;-72
2023/03/23 03:04:12;;;;;;;5.00;4.25;;;12.90;99.90;;;;;;5036099;28;20119;-72
2023/03/23 03:07:09;;;;;;;5.25;4.25;;;12.90;99.90;;;;;;5033302;28;20022;-72
2023/03/23 03:09:34;;;;;;;6.10;4.10;;;12.90;99.90;;;;;;5032904;28;20029;-72
2023/03/23 03:12:21;;;;;;;5.75;4.60;;;12.90;99.90;;;;;;5035703;28;20062;-72
2023/03/23 03:14:58;;;;;;;6.00;4.38;;;12.90;99.90;;;;;;5025011;28;20039;-72
2023/03/23 03:17:26;;;;;;;7.72;4.80;;;12.90;99.90;;;;;;5033341;28;20032;-72
2023/03/23 03:19:57;;;;;;;6.50;3.97;;;12.90;99.90;;;;;;5032125;28;20029;-72
2023/03/23 03:22:28;;;;;;;5.28;4.40;;;12.90;99.90;;;;;;5036146;28;20025;-72
2023/03/23 03:24:56;;;;;;;6.10;4.22;;;12.90;99.90;;;;;;5035510;28;20445;-72
2023/03/23 03:27:23;;;;;;;5.82;3.95;;;13.00;99.90;;;;;;5035033;28;20009;-72
2023/03/23 03:29:54;;;;;;;5.93;3.85;;;12.90;99.90;;;;;;5036097;28;20021;-72
2023/03/23 03:32:23;;;;;;;6.95;4.35;;;13.00;99.90;;;;;;5041202;28;20466;-72
2023/03/23 03:34:52;;;;;;;5.97;4.25;;;13.00;99.90;;;;;;5029411;28;20044;-72
2023/03/23 03:37:18;;;;;;;5.22;3.90;;;13.00;99.90;;;;;;5039816;28;20099;-72
2023/03/23 03:39:44;;;;;;;5.45;3.65;;;13.00;99.90;;;;;;5048660;28;20017;-72
2023/03/23 03:42:09;;;;;;;8.02;4.75;;;13.00;99.90;;;;;;5049354;28;20473;-72
2023/03/23 03:44:35;;;;;;;6.47;3.78;;;13.00;99.90;;;;;;5052220;28;20029;-72
2023/03/23 03:47:01;;;;;;;4.70;4.13;;;13.00;99.90;;;;;;5053548;28;20024;-72
2023/03/23 03:49:27;;;;;;;5.22;3.55;;;13.00;99.90;;;;;;5049842;28;20486;-72
2023/03/23 03:51:52;;;;;;;6.30;4.07;;;13.00;99.90;;;;;;5043504;28;20017;-72
2023/03/23 03:54:18;;;;;;;6.43;3.25;;;13.10;99.90;;;;;;5050451;28;20025;-72
2023/03/23 03:56:45;;;;;;;4.32;3.72;;;13.00;99.90;;;;;;5033777;28;20486;-72
2023/03/23 03:59:12;;;;;;;6.60;4.05;;;13.10;99.90;;;;;;5049790;28;20082;-72
2023/03/23 04:01:38;;;;;;;3.53;3.17;;;13.10;99.90;;;;;;5053266;28;20041;-72
2023/03/23 04:04:06;;;;;;;4.57;3.25;;;13.00;99.90;;;;;;5035985;28;20398;-72
2023/03/23 04:06:32;;;;;;;4.30;3.83;;;13.00;99.90;;;;;;5033869;28;20018;-72
2023/03/23 04:08:58;;;;;;;10.70;3.97;;;13.10;99.90;;;;;;5037028;28;20052;-72
2023/03/23 04:11:25;;;;;;;7.25;4.20;;;13.10;99.90;;;;;;5053699;28;20478;-72
2023/03/23 04:13:51;;;;;;;5.40;3.80;;;13.10;99.90;;;;;;5039752;28;20020;-72
2023/03/23 04:16:17;;;;;;;3.97;3.17;;;13.10;99.90;;;;;;5053508;28;20037;-72
2023/03/23 04:18:43;;;;;;;6.30;3.88;;;13.10;99.90;;;;;;5035423;28;20474;-72
2023/03/23 04:21:09;;;;;;;5.05;3.75;;;13.10;99.90;;;;;;5032278;28;20067;-72
2023/03/23 04:23:36;;;;;;;4.85;3.45;;;13.10;99.90;;;;;;5033449;28;20113;-72
2023/03/23 04:26:03;;;;;;;5.57;4.30;;;13.10;99.90;;;;;;5034153;28;20021;-72
2023/03/23 04:28:29;;;;;;;4.72;3.10;;;13.10;99.90;;;;;;5033755;28;20010;-72
2023/03/23 04:30:55;;;;;;;6.32;3.72;;;13.20;99.90;;;;;;5044138;28;20032;-72
2023/03/23 04:33:26;;;;;;;6.53;3.40;;;13.20;99.90;;;;;;5048034;28;20022;-72
2023/03/23 04:35:52;;;;;;;6.13;3.70;;;13.20;99.90;;;;;;5032995;28;20039;-72
2023/03/23 04:38:20;;;;;;;5.15;3.03;;;13.20;99.90;;;;;;5033338;28;20535;-72
2023/03/23 04:40:47;;;;;;;3.45;2.90;;;13.20;99.90;;;;;;5033071;28;20021;-72
2023/03/23 04:43:14;;;;;;;6.47;3.28;;;13.20;99.90;;;;;;5036714;28;20505;-72
2023/03/23 04:45:45;;;;;;;3.72;2.72;;;13.20;99.90;;;;;;5052370;28;20381;-72
2023/03/23 04:48:11;;;;;;;3.33;2.53;;;13.30;99.90;;;;;;5051548;28;20021;-72
2023/03/23 04:50:37;;;;;;;4.05;2.70;;;13.20;99.90;;;;;;5052616;28;20021;-72
2023/03/23 04:53:05;;;;;;;3.85;2.83;;;13.30;99.90;;;;;;5051809;28;20017;-72
2023/03/23 04:55:38;;;;;;;4.03;2.50;;;13.30;99.90;;;;;;5052119;28;20029;-72
2023/03/23 04:58:05;;;;;;;8.88;2.78;;;13.30;99.90;;;;;;5052691;28;20521;-72
2023/03/23 05:00:32;;;;;;;5.28;2.35;;;13.30;99.90;;;;;;5051479;28;20041;-71
2023/03/23 05:02:58;;;;;;;9.38;2.67;;;13.30;99.90;;;;;;5051580;28;20037;-72
2023/03/23 05:05:25;;;;;;;8.23;2.65;;;13.30;99.90;;;;;;5051396;28;20055;-71
2023/03/23 05:07:51;;;;;;;5.63;2.33;;;13.20;99.90;;;;;;5051729;28;20052;-72
2023/03/23 05:10:17;;;;;;;9.25;2.45;;;13.20;99.90;;;;;;5050067;28;20025;-72
2023/03/23 05:12:43;;;;;;;6.72;2.13;;;13.20;99.90;;;;;;5052058;28;20075;-72
2023/03/23 05:15:10;;;;;;;9.68;2.60;;;13.20;99.90;;;;;;5050749;28;20029;-73
2023/03/23 05:17:36;;;;;;;6.90;2.22;;;13.20;99.90;;;;;;5049331;28;20044;-72
2023/03/23 05:20:11;;;;;;;6.65;1.85;;;13.10;99.90;;;;;;5049629;28;20057;-71
2023/03/23 05:22:38;;;;;;;7.25;2.60;;;13.10;99.90;;;;;;5039898;28;20188;-72
2023/03/23 05:25:05;;;;;;;5.32;2.13;;;13.20;99.90;;;;;;5034729;28;20091;-72
2023/03/23 05:27:32;;;;;;;6.63;2.03;;;13.20;99.90;;;;;;5031625;28;20049;-74
2023/03/23 05:29:58;;;;;;;5.35;2.22;;;13.20;99.90;;;;;;5036686;28;20025;-72
2023/03/23 05:32:30;;;;;;;4.15;1.63;;;13.20;99.90;;;;;;5051319;28;20017;-72
2023/03/23 05:34:57;;;;;;;9.75;2.80;;;13.20;99.90;;;;;;5033351;28;20056;-73
2023/03/23 05:37:24;;;;;;;10.63;2.22;;;13.20;99.90;;;;;;5032196;28;20017;-72
2023/03/23 05:39:53;;;;;;;9.40;1.65;;;13.10;99.90;;;;;;5032333;28;20037;-72
2023/03/23 05:42:20;;;;;;;8.00;1.80;;;13.20;99.90;;;;;;5032302;28;20266;-73
2023/03/23 05:44:47;;;;;;;9.15;1.95;;;13.20;99.90;;;;;;5032320;28;20394;-73
2023/03/23 05:47:13;;;;;;;6.05;1.48;;;13.20;99.90;;;;;;5032132;28;20018;-73
2023/03/23 05:49:38;;;;;;;6.20;1.40;;;13.20;99.90;;;;;;5032286;28;20111;-72
2023/03/23 05:52:04;;;;;;;7.30;2.10;;;13.20;99.90;;;;;;5030528;28;20367;-73
2023/03/23 05:54:30;;;;;;;7.07;1.77;;;13.20;99.90;;;;;;5032070;28;20083;-74
2023/03/23 05:56:55;;;;;;;4.85;1.73;;;13.20;99.90;;;;;;5043134;28;20024;-72
2023/03/23 05:59:21;;;;;;;7.35;1.70;;;13.20;99.90;;;;;;5045488;28;20083;-73
2023/03/23 06:01:46;;;;;;;5.07;1.70;;;13.20;99.90;;;;;;5031511;28;20053;-73
2023/03/23 06:04:13;;;;;;;5.63;1.10;;;13.10;99.90;;;;;;5048808;28;20040;-73
2023/03/23 06:06:40;;;;;;;7.78;1.65;;;13.20;99.90;;;;;;5050540;28;20049;-73
2023/03/23 06:09:06;;;;;;;7.88;1.58;;;13.20;99.90;;;;;;5050314;28;20029;-73
2023/03/23 06:11:32;;;;;;;5.75;2.05;;;13.30;99.90;;;;;;5051038;28;20559;-73
2023/03/23 06:13:58;;;;;;;8.27;2.13;;;13.30;99.90;;;;;;5049195;28;20411;-73
2023/03/23 06:16:23;;;;;;;7.72;1.95;;;13.30;99.90;;;;;;5050385;28;20048;-73
2023/03/23 06:18:49;;;;;;;8.82;1.52;;;13.30;99.90;;;;;;5049903;28;20363;-73
2023/03/23 06:21:15;;;;;;;8.93;1.48;;;13.30;99.90;;;;;;5050652;28;20100;-73
2023/03/23 06:23:40;;;;;;;5.63;1.45;;;13.30;99.90;;;;;;5049769;28;20099;-72
2023/03/23 06:26:11;;;;;;;6.82;1.48;;;13.40;99.90;;;;;;5050559;28;20021;-73
2023/03/23 06:28:38;;;;;;;6.70;1.75;;;13.40;99.90;;;;;;5049189;28;20389;-73
2023/03/23 06:31:06;;;;;;;7.10;1.60;;;13.40;99.90;;;;;;5050250;28;20055;-73
2023/03/23 06:33:35;;;;;;;6.72;1.35;;;13.50;99.90;;;;;;5030295;28;20029;-73
2023/03/23 06:36:01;;;;;;;6.32;0.98;;;13.50;99.90;;;;;;5031187;28;20487;-73
2023/03/23 06:38:27;;;;;;;6.45;2.22;;;13.50;99.90;;;;;;5049377;28;20517;-73
2023/03/23 06:40:53;;;;;;;6.68;1.65;;;13.50;99.90;;;;;;5050444;28;20029;-73
2023/03/23 06:43:19;;;;;;;6.78;1.33;;;13.50;99.90;;;;;;5049921;28;20039;-73
2023/03/23 06:45:45;;;;;;;6.63;2.10;;;13.50;99.90;;;;;;5050094;28;20021;-73
2023/03/23 06:48:10;;;;;;;7.07;1.45;;;13.50;99.90;;;;;;5049270;28;20107;-73
2023/03/23 06:50:36;;;;;;;11.35;2.00;;;13.40;99.90;;;;;;5048800;28;20071;-72
2023/03/23 06:53:01;;;;;;;5.55;1.10;;;13.40;99.90;;;;;;5049678;28;20027;-73
2023/03/23 06:55:27;;;;;;;8.40;1.45;;;13.40;99.90;;;;;;5050213;28;20460;-73
2023/03/23 06:57:53;;;;;;;5.68;1.20;;;13.50;99.90;;;;;;5036190;28;20031;-73
2023/03/23 07:00:19;;;;;;;4.63;1.30;;;13.40;99.90;;;;;;5050166;28;20381;-73
2023/03/23 07:02:44;;;;;;;8.52;1.70;;;13.50;99.90;;;;;;5049621;28;20490;-72
2023/03/23 07:05:11;;;;;;;9.80;2.08;;;13.50;99.90;;;;;;5049793;28;20078;-73
2023/03/23 07:07:38;;;;;;;10.32;2.30;;;13.50;99.90;;;;;;5049413;28;20441;-73
2023/03/23 07:10:06;;;;;;;5.32;1.40;;;13.50;99.90;;;;;;5049847;28;20025;-73
2023/03/23 07:12:33;;;;;;;6.70;1.90;;;13.50;99.90;;;;;;5049568;28;20029;-73
2023/03/23 07:14:58;;;;;;;2.63;1.40;;;13.50;99.90;;;;;;5049542;28;20155;-70
2023/03/23 07:17:24;;;;;;;8.75;2.42;;;13.50;99.90;;;;;;5042404;28;20109;-71
2023/03/23 07:19:49;;;;;;;7.43;2.22;;;13.50;99.90;;;;;;5042981;28;20047;-71
2023/03/23 07:22:15;;;;;;;9.13;1.73;;;13.60;99.90;;;;;;5030728;28;20055;-72
2023/03/23 07:24:41;;;;;;;9.60;2.72;;;13.60;99.90;;;;;;5030285;28;20056;-72
2023/03/23 07:27:07;;;;;;;6.50;1.50;;;13.60;99.90;;;;;;5028618;28;20021;-72
2023/03/23 07:29:35;;;;;;;6.10;1.58;;;13.60;99.90;;;;;;5029088;28;20021;-71
2023/03/23 07:32:01;;;;;;;10.30;1.77;;;13.60;99.90;;;;;;5049298;28;20017;-72
2023/03/23 07:34:27;;;;;;;7.25;2.15;;;13.60;99.90;;;;;;5048249;28;20028;-72
2023/03/23 07:36:53;;;;;;;3.42;0.80;;;13.60;99.90;;;;;;5048554;28;20099;-72
2023/03/23 07:39:19;;;;;;;5.07;1.17;;;13.60;99.90;;;;;;5049350;28;20495;-72
2023/03/23 07:41:44;;;;;;;3.03;0.90;;;13.50;99.90;;;;;;5047548;28;20512;-72
2023/03/23 07:44:10;;;;;;;3.63;1.13;;;13.50;99.90;;;;;;5048140;28;20029;-72
2023/03/23 07:46:35;;;;;;;4.50;1.10;;;13.50;99.90;;;;;;5046540;28;20009;-72
2023/03/23 07:49:05;;;;;;;6.50;2.20;;;13.50;99.90;;;;;;5046670;28;20535;-72
2023/03/23 07:51:31;;;;;;;3.13;0.95;;;13.40;99.90;;;;;;5046962;28;20017;-72
2023/03/23 07:53:57;;;;;;;5.88;1.30;;;13.40;99.90;;;;;;5045675;28;20025;-72
2023/03/23 07:56:23;;;;;;;2.70;1.17;;;13.30;99.90;;;;;;5046586;28;20024;-72
2023/03/23 07:58:49;;;;;;;3.40;1.30;;;13.30;99.90;;;;;;5046746;28;20025;-72
2023/03/23 08:01:15;;;;;;;5.22;1.42;;;13.30;99.90;;;;;;5047228;28;20087;-72
2023/03/23 08:03:41;;;;;;;5.60;1.38;;;13.20;99.90;;;;;;5046772;28;20466;-72
2023/03/23 08:06:08;;;;;;;4.90;1.50;;;13.20;99.90;;;;;;5047953;28;20112;-72
2023/03/23 08:08:34;;;;;;;5.78;1.50;;;13.10;99.90;;;;;;5046713;28;20068;-72
2023/03/23 08:10:59;;;;;;;6.38;1.95;;;13.10;99.90;;;;;;5046924;28;20048;-72
2023/03/23 08:13:25;;;;;;;4.68;1.48;;;13.00;99.90;;;;;;5047408;28;20127;-72
2023/03/23 08:15:51;;;;;;;6.50;2.25;;;13.00;99.90;;;;;;5035636;28;20078;-72
2023/03/23 08:18:17;;;;;;;5.55;1.90;;;13.00;99.90;;;;;;5047300;28;20252;-71
2023/03/23 08:20:44;;;;;;;9.65;2.33;;;13.00;99.90;;;;;;5047382;28;20035;-72
2023/03/23 08:23:10;;;;;;;6.22;1.75;;;13.00;99.90;;;;;;5046638;28;20021;-72
2023/03/23 08:25:36;;;;;;;5.05;2.20;;;13.00;99.90;;;;;;5047000;28;20171;-72
2023/03/23 08:28:03;;;;;;;4.50;1.85;;;13.10;99.90;;;;;;5045545;28;20166;-72
2023/03/23 08:30:30;;;;;;;7.35;1.70;;;13.10;99.90;;;;;;5039451;28;20383;-72
2023/03/23 08:32:57;;;;;;;4.95;1.60;;;13.20;99.90;;;;;;5037769;28;20111;-72
2023/03/23 08:35:23;;;;;;;6.68;2.17;;;13.20;99.90;;;;;;5052986;28;20104;-72
2023/03/23 08:37:50;;;;;;;4.30;1.55;;;13.20;99.90;;;;;;5038338;28;20108;-72
2023/03/23 08:40:19;;;;;;;5.07;1.67;;;13.20;99.90;;;;;;5031522;28;20025;-72
2023/03/23 08:42:46;;;;;;;2.75;1.90;;;13.20;99.90;;;;;;5046111;28;20079;-72
2023/03/23 08:45:15;;;;;;;7.07;1.77;;;13.30;99.90;;;;;;5041128;28;20032;-72
2023/03/23 08:47:42;;;;;;;4.05;1.35;;;13.40;99.90;;;;;;5037383;28;20026;-72
2023/03/23 08:50:10;;;;;;;3.10;1.75;;;13.40;99.90;;;;;;5033160;28;20040;-72
2023/03/23 08:52:37;;;;;;;4.18;1.27;;;13.40;99.90;;;;;;5033408;28;20014;-72
2023/03/23 08:55:03;;;;;;;3.90;1.25;;;13.40;99.90;;;;;;5032722;28;20444;-72
2023/03/23 08:57:29;;;;;;;3.72;1.38;;;13.40;99.90;;;;;;5033371;28;20104;-72
2023/03/23 08:59:59;;;;;;;7.55;1.92;;;13.40;99.90;;;;;;5032600;28;20104;-72
2023/03/23 09:02:26;;;;;;;4.38;0.88;;;13.50;99.90;;;;;;5032732;28;20037;-72
2023/03/23 09:04:52;;;;;;;3.75;1.33;;;13.50;99.90;;;;;;5031680;28;20397;-72
2023/03/23 09:07:18;;;;;;;2.72;1.08;;;13.60;99.90;;;;;;5045654;28;20097;-72
2023/03/23 09:09:44;;;;;;;3.33;1.10;;;13.60;99.90;;;;;;5042644;28;20104;-72
2023/03/23 09:12:11;;;;;;;4.60;1.00;;;13.60;99.90;;;;;;5038696;28;20028;-72
2023/03/23 09:14:38;;;;;;;3.20;1.02;;;13.60;99.90;;;;;;5041488;28;20109;-72
2023/03/23 09:17:04;;;;;;;4.05;0.65;;;13.60;99.90;;;;;;5032460;28;20021;-72
2023/03/23 09:19:31;;;;;;;4.38;0.68;;;13.60;99.90;;;;;;5032782;28;20367;-73
2023/03/23 09:21:56;;;;;;;2.58;0.63;;;13.70;99.90;;;;;;5032757;28;20057;-72
2023/03/23 09:24:22;;;;;;;3.45;1.20;;;13.70;99.90;;;;;;5032271;28;20061;-72
2023/03/23 09:26:48;;;;;;;6.25;1.10;;;13.80;99.90;;;;;;5033295;28;20021;-72
2023/03/23 09:29:13;;;;;;;6.20;1.23;;;13.70;99.90;;;;;;5031462;28;20040;-72
2023/03/23 09:31:42;;;;;;;5.28;0.98;;;13.70;99.90;;;;;;5048895;28;20066;-73
2023/03/23 09:34:11;;;;;;;5.60;0.93;;;13.60;99.90;;;;;;5051876;28;20039;-74
2023/03/23 09:36:38;;;;;;;6.53;1.20;;;13.60;99.90;;;;;;5051519;28;20025;-74
2023/03/23 09:39:11;;;;;;;5.82;0.95;;;13.50;99.90;;;;;;5051132;28;20021;-74
2023/03/23 09:42:00;;;;;;;3.72;0.88;;;13.60;99.90;;;;;;5050629;28;20017;-74
2023/03/23 09:44:45;;;;;;;4.18;0.80;;;13.60;99.90;;;;;;5051064;28;20497;-74
2023/03/23 09:47:14;;;;;;;4.53;0.93;;;13.70;99.90;;;;;;5040636;28;20045;-74
2023/03/23 09:49:42;;;;;;;2.65;0.98;;;13.70;99.90;;;;;;5032002;28;20044;-73
2023/03/23 09:52:16;;;;;;;7.53;1.85;;;13.80;99.90;;;;;;5031526;28;20029;-74
2023/03/23 09:54:52;;;;;;;5.47;1.42;;;13.80;99.90;;;;;;5032273;28;20022;-73
2023/03/23 09:57:37;;;;;;;8.95;1.75;;;13.80;99.90;;;;;;5035347;28;20032;-75
2023/03/23 10:00:14;;;;;;;8.60;2.17;;;13.90;99.90;;;;;;5035898;28;20112;-74
2023/03/23 10:03:07;;;;;;;7.85;1.42;;;13.90;99.90;;;;;;5032450;28;20033;-74
2023/03/23 10:05:37;;;;;;;6.85;1.70;;;14.00;99.90;;;;;;5031571;28;20129;-74
2023/03/23 10:08:12;;;;;;;10.48;2.40;;;14.20;99.90;;;;;;5029456;28;20036;-75
2023/03/23 10:10:45;;;;;;;12.25;1.67;;;14.30;99.90;;;;;;5030438;28;20025;-74
2023/03/23 10:13:52;;;;;;;9.45;1.50;;;14.50;99.90;;;;;;5031800;28;20032;-74
2023/03/23 10:16:22;;;;;;;9.13;1.40;;;14.50;99.90;;;;;;5031926;28;20065;-74
2023/03/23 10:19:13;;;;;;;9.75;1.60;;;14.60;99.90;;;;;;5032221;28;20079;-75
2023/03/23 10:21:44;;;;;;;5.95;1.27;;;14.60;99.90;;;;;;5031052;28;20382;-74
2023/03/23 10:24:15;;;;;;;10.07;1.58;;;14.50;99.90;;;;;;5031469;28;20030;-74
2023/03/23 10:26:52;;;;;;;6.60;1.38;;;14.60;99.90;;;;;;5031338;28;20041;-74
2023/03/23 10:29:24;;;;;;;8.40;1.98;;;14.60;99.90;;;;;;5031516;28;20021;-74
2023/03/23 10:32:15;;;;;;;8.50;1.67;;;14.70;99.90;;;;;;5048729;28;20021;-74
2023/03/23 10:35:01;;;;;;;10.77;2.20;;;14.80;99.90;;;;;;5049998;28;20033;-74
2023/03/23 10:37:36;;;;;;;12.57;2.47;;;14.90;99.90;;;;;;5050363;28;20025;-75
2023/03/23 10:40:09;;;;;;;11.35;2.58;;;14.80;99.90;;;;;;5049576;28;20118;-75
2023/03/23 10:42:37;;;;;;;10.57;2.13;;;14.80;99.90;;;;;;5049989;28;20017;-74
2023/03/23 10:45:26;;;;;;;7.57;1.98;;;14.80;99.90;;;;;;5049751;28;20029;-74
2023/03/23 10:48:15;;;;;;;8.43;2.35;;;14.80;99.90;;;;;;5048919;28;20604;-74
2023/03/23 10:50:43;;;;;;;9.00;2.28;;;15.00;99.90;;;;;;5048648;28;20025;-74
2023/03/23 10:53:16;;;;;;;8.40;2.13;;;15.00;99.90;;;;;;5037179;28;20025;-74
2023/03/23 10:55:44;;;;;;;5.78;1.55;;;15.00;99.90;;;;;;5038683;28;20071;-74
2023/03/23 10:58:12;;;;;;;7.97;1.92;;;15.00;99.90;;;;;;5033622;28;20040;-75
2023/03/23 11:00:44;;;;;;;8.73;2.30;;;15.20;99.90;;;;;;5038276;28;20068;-74
2023/03/23 11:03:17;;;;;;;10.27;2.10;;;15.30;99.90;;;;;;5045738;28;20319;-74
2023/03/23 11:05:47;;;;;;;12.35;2.28;;;15.40;99.90;;;;;;5042485;28;20025;-74
2023/03/23 11:08:34;;;;;;;10.10;2.03;;;15.40;99.90;;;;;;5035967;28;20030;-74
2023/03/23 11:11:17;;;;;;;7.95;1.77;;;15.40;99.90;;;;;;5031022;28;20045;-75
2023/03/23 11:13:48;;;;;;;14.45;2.33;;;15.50;99.90;;;;;;5033560;28;20036;-74
2023/03/23 11:16:29;;;;;;;9.77;2.05;;;15.40;99.90;;;;;;5024592;28;20025;-74
2023/03/23 11:18:55;;;;;;;6.95;2.47;;;15.40;99.90;;;;;;5029062;28;20096;-74
2023/03/23 11:21:23;;;;;;;6.03;1.95;;;15.40;99.90;;;;;;5019646;28;20026;-75
2023/03/23 11:23:57;;;;;;;9.38;2.17;;;15.50;99.90;;;;;;5023680;28;20046;-74
2023/03/23 11:26:32;;;;;;;5.97;3.05;;;15.50;99.90;;;;;;5019141;28;20029;-74
2023/03/23 11:29:10;;;;;;;7.28;1.83;;;15.60;99.90;;;;;;5020169;28;20018;-74
2023/03/23 11:31:41;;;;;;;10.50;2.15;;;15.60;99.90;;;;;;5045619;28;20032;-74
2023/03/23 11:34:09;;;;;;;10.60;2.25;;;15.70;99.90;;;;;;5049517;28;20070;-74
2023/03/23 11:36:40;;;;;;;6.55;2.28;;;15.80;99.90;;;;;;5048618;28;20021;-74
2023/03/23 11:39:26;;;;;;;7.28;1.65;;;15.90;99.90;;;;;;5048790;28;20029;-74
2023/03/23 11:41:53;;;;;;;8.32;2.55;;;15.90;99.90;;;;;;5056340;28;20040;-74
2023/03/23 11:44:22;;;;;;;7.97;2.33;;;15.70;99.90;;;;;;5047959;28;20020;-74
2023/03/23 11:47:00;;;;;;;9.63;2.55;;;15.60;99.90;;;;;;5049137;28;20478;-74
2023/03/23 11:49:39;;;;;;;4.38;1.85;;;15.60;99.90;;;;;;5045371;28;20025;-74
2023/03/23 11:52:23;;;;;;;6.47;1.80;;;15.70;99.90;;;;;;5047159;28;20021;-73
2023/03/23 11:55:19;;;;;;;6.68;1.65;;;15.70;99.90;;;;;;5024346;28;20078;-73
2023/03/23 11:57:44;;;;;;;5.03;2.08;;;15.70;99.90;;;;;;5041514;28;20064;-74
2023/03/23 12:00:19;;;;;;;6.90;2.20;;;15.70;99.90;;;;;;5045503;28;20064;-74
2023/03/23 12:03:04;;;;;;;9.23;2.35;;;15.60;99.90;;;;;;5073139;28;20025;-74
2023/03/23 12:05:40;;;;;;;7.75;1.65;;;15.60;99.90;;;;;;5042643;28;20033;-74
2023/03/23 12:08:31;;;;;;;6.88;2.40;;;15.60;99.90;;;;;;5042315;28;20022;-74
2023/03/23 12:11:23;;;;;;;9.25;2.60;;;15.60;99.90;;;;;;5035254;28;20108;-74
2023/03/23 12:14:02;;;;;;;9.57;2.58;;;15.60;99.90;;;;;;5041560;28;20032;-75
2023/03/23 12:16:50;;;;;;;7.57;1.90;;;15.60;99.90;;;;;;5037319;28;20136;-75
2023/03/23 12:19:54;;;;;;;8.60;2.60;;;15.60;99.90;;;;;;5037385;28;21420;-74
2023/03/23 12:22:48;;;;;;;8.40;2.78;;;15.60;99.90;;;;;;5034154;28;20500;-75
2023/03/23 12:25:45;;;;;;;7.90;2.30;;;15.70;99.90;;;;;;5041427;28;20041;-75
2023/03/23 12:28:15;;;;;;;9.35;2.88;;;15.90;99.90;;;;;;5014540;28;20426;-75
2023/03/23 12:30:48;;;;;;;7.22;1.88;;;16.00;99.90;;;;;;5041354;28;20024;-75
2023/03/23 12:33:46;;;;;;;8.00;2.53;;;16.10;99.90;;;;;;5051811;28;20021;-75
2023/03/23 12:36:24;;;;;;;4.47;1.65;;;16.10;99.90;;;;;;5049805;28;20070;-75
2023/03/23 12:39:00;;;;;;;6.10;2.00;;;16.20;99.90;;;;;;5051429;28;20044;-74
2023/03/23 12:41:29;;;;;;;7.93;2.00;;;16.20;99.90;;;;;;5048668;28;20017;-75
2023/03/23 12:44:02;;;;;;;11.50;1.92;;;16.30;99.90;;;;;;5050569;28;20025;-74
2023/03/23 12:46:36;;;;;;;6.72;1.85;;;16.40;99.90;;;;;;5047658;28;20411;-75
2023/03/23 12:49:23;;;;;;;5.68;1.50;;;16.40;99.90;;;;;;5046870;28;20484;-74
2023/03/23 12:52:04;;;;;;;5.72;1.85;;;16.20;99.90;;;;;;5031687;28;20078;-74
2023/03/23 12:54:38;;;;;;;4.40;1.73;;;16.10;99.90;;;;;;5047234;28;20099;-74
2023/03/23 12:57:19;;;;;;;5.18;1.60;;;15.90;99.90;;;;;;5047920;28;20025;-75
2023/03/23 12:59:55;;;;;;;7.65;1.83;;;15.60;99.90;;;;;;5027805;28;20025;-74
2023/03/23 13:02:34;;;;;;;9.82;2.50;;;15.30;99.90;;;;;;5045377;28;20560;-75